sensor_id;sensor_type;location;lat;lon;timestamp;temperature;humidity
32698;DHT22;19087;51.062;3.754;2024-02-16T00:01:20;13.80;99.90
32698;DHT22;19087;51.062;3.754;2024-02-16T00:03:46;13.80;99.90
32698;DHT22;19087;51.062;3.754;2024-02-16T00:06:12;13.80;99.90
32698;DHT22;19087;51.062;3.754;2024-02-16T00:08:38;13.80;99.90
32698;DHT22;19087;51.062;3.754;2024-02-16T00:11:05;13.80;99.90
32698;DHT22;19087;51.062;3.754;2024-02-16T00:13:30;13.90;99.90
32698;DHT22;19087;51.062;3.754;2024-02-16T00:15:58;14.00;99.90
32698;DHT22;19087;51.062;3.754;2024-02-16T00:18:25;14.10;99.90
32698;DHT22;19087;51.062;3.754;2024-02-16T00:20:51;14.10;99.90
32698;DHT22;19087;51.062;3.754;2024-02-16T00:23:17;14.20;99.90
32698;DHT22;19087;51.062;3.754;2024-02-16T00:25:44;14.30;99.90
32698;DHT22;19087;51.062;3.754;2024-02-16T00:28:11;14.30;99.90
32698;DHT22;19087;51.062;3.754;2024-02-16T00:30:36;14.30;99.90
32698;DHT22;19087;51.062;3.754;2024-02-16T00:33:02;14.20;99.90
32698;DHT22;19087;51.062;3.754;2024-02-16T00:35:28;14.20;99.90
32698;DHT22;19087;51.062;3.754;2024-02-16T00:37:55;14.10;99.90
32698;DHT22;19087;51.062;3.754;2024-02-16T00:40:21;14.00;99.90
32698;DHT22;19087;51.062;3.754;2024-02-16T00:42:48;14.00;99.90
32698;DHT22;19087;51.062;3.754;2024-02-16T00:45:16;14.00;99.90
32698;DHT22;19087;51.062;3.754;2024-02-16T00:47:41;13.90;99.90
32698;DHT22;19087;51.062;3.754;2024-02-16T00:50:07;13.90;99.90
32698;DHT22;19087;51.062;3.754;2024-02-16T00:52:34;13.80;99.90
32698;DHT22;19087;51.062;3.754;2024-02-16T00:55:01;13.90;99.90
32698;DHT22;19087;51.062;3.754;2024-02-16T00:57:29;13.90;99.90
32698;DHT22;19087;51.062;3.754;2024-02-16T00:59:55;13.90;99.90
32698;DHT22;19087;51.062;3.754;2024-02-16T01:02:21;13.90;99.90
32698;DHT22;19087;51.062;3.754;2024-02-16T01:04:48;13.90;99.90
32698;DHT22;19087;51.062;3.754;2024-02-16T01:07:18;13.90;99.90
32698;DHT22;19087;51.062;3.754;2024-02-16T01:09:45;13.90;99.90
32698;DHT22;19087;51.062;3.754;2024-02-16T01:12:12;13.90;99.90
32698;DHT22;19087;51.062;3.754;2024-02-16T01:14:38;13.90;99.90
32698;DHT22;19087;51.062;3.754;2024-02-16T01:17:03;13.80;99.90
32698;DHT22;19087;51.062;3.754;2024-02-16T01:19:29;13.80;99.90
32698;DHT22;19087;51.062;3.754;2024-02-16T01:21:55;13.80;99.90
32698;DHT22;19087;51.062;3.754;2024-02-16T01:24:29;13.80;99.90
32698;DHT22;19087;51.062;3.754;2024-02-16T01:26:54;13.80;99.90
32698;DHT22;19087;51.062;3.754;2024-02-16T01:29:20;13.80;99.90
32698;DHT22;19087;51.062;3.754;2024-02-16T01:31:48;13.80;99.90
32698;DHT22;19087;51.062;3.754;2024-02-16T01:34:14;13.80;99.90
32698;DHT22;19087;51.062;3.754;2024-02-16T01:36:42;13.80;99.90
32698;DHT22;19087;51.062;3.754;2024-02-16T01:39:11;13.80;99.90
32698;DHT22;19087;51.062;3.754;2024-02-16T01:41:46;13.80;99.90
32698;DHT22;19087;51.062;3.754;2024-02-16T01:44:12;13.80;99.90
32698;DHT22;19087;51.062;3.754;2024-02-16T01:46:38;13.80;99.90
32698;DHT22;19087;51.062;3.754;2024-02-16T01:49:03;13.90;99.90
32698;DHT22;19087;51.062;3.754;2024-02-16T01:51:31;13.90;99.90
32698;DHT22;19087;51.062;3.754;2024-02-16T01:54:03;13.80;99.90
32698;DHT22;19087;51.062;3.754;2024-02-16T01:56:29;13.80;99.90
32698;DHT22;19087;51.062;3.754;2024-02-16T01:59:03;14.00;99.90
32698;DHT22;19087;51.062;3.754;2024-02-16T02:01:29;13.90;99.90
32698;DHT22;19087;51.062;3.754;2024-02-16T02:03:56;13.80;99.90
32698;DHT22;19087;51.062;3.754;2024-02-16T02:06:21;13.80;99.90
32698;DHT22;19087;51.062;3.754;2024-02-16T02:08:47;13.80;99.90
32698;DHT22;19087;51.062;3.754;2024-02-16T02:11:13;13.80;99.90
32698;DHT22;19087;51.062;3.754;2024-02-16T02:13:45;13.80;99.90
32698;DHT22;19087;51.062;3.754;2024-02-16T02:16:11;13.70;99.90
32698;DHT22;19087;51.062;3.754;2024-02-16T02:18:37;13.60;99.90
32698;DHT22;19087;51.062;3.754;2024-02-16T02:21:03;13.60;99.90
32698;DHT22;19087;51.062;3.754;2024-02-16T02:23:28;13.60;99.90
32698;DHT22;19087;51.062;3.754;2024-02-16T02:25:57;13.70;99.90
32698;DHT22;19087;51.062;3.754;2024-02-16T02:28:26;13.60;99.90
32698;DHT22;19087;51.062;3.754;2024-02-16T02:30:52;13.70;99.90
32698;DHT22;19087;51.062;3.754;2024-02-16T02:33:19;13.70;99.90
32698;DHT22;19087;51.062;3.754;2024-02-16T02:35:46;13.70;99.90
32698;DHT22;19087;51.062;3.754;2024-02-16T02:38:17;13.70;99.90
32698;DHT22;19087;51.062;3.754;2024-02-16T02:40:43;13.80;99.90
32698;DHT22;19087;51.062;3.754;2024-02-16T02:43:08;13.80;99.90
32698;DHT22;19087;51.062;3.754;2024-02-16T02:45:34;13.80;99.90
32698;DHT22;19087;51.062;3.754;2024-02-16T02:48:00;13.90;99.90
32698;DHT22;19087;51.062;3.754;2024-02-16T02:50:26;13.90;99.90
32698;DHT22;19087;51.062;3.754;2024-02-16T02:52:58;13.80;99.90
32698;DHT22;19087;51.062;3.754;2024-02-16T02:55:24;13.90;99.90
32698;DHT22;19087;51.062;3.754;2024-02-16T02:57:49;13.90;99.90
32698;DHT22;19087;51.062;3.754;2024-02-16T03:00:15;13.90;99.90
32698;DHT22;19087;51.062;3.754;2024-02-16T03:02:41;13.80;99.90
32698;DHT22;19087;51.062;3.754;2024-02-16T03:05:10;13.80;99.90
32698;DHT22;19087;51.062;3.754;2024-02-16T03:07:37;13.90;99.90
32698;DHT22;19087;51.062;3.754;2024-02-16T03:10:03;13.90;99.90
32698;DHT22;19087;51.062;3.754;2024-02-16T03:12:29;13.90;99.90
32698;DHT22;19087;51.062;3.754;2024-02-16T03:14:57;13.90;99.90
32698;DHT22;19087;51.062;3.754;2024-02-16T03:17:23;14.00;99.90
32698;DHT22;19087;51.062;3.754;2024-02-16T03:19:48;14.00;99.90
32698;DHT22;19087;51.062;3.754;2024-02-16T03:22:14;14.10;99.90
32698;DHT22;19087;51.062;3.754;2024-02-16T03:24:40;14.20;99.90
32698;DHT22;19087;51.062;3.754;2024-02-16T03:27:06;14.30;99.90
32698;DHT22;19087;51.062;3.754;2024-02-16T03:29:32;14.10;99.90
32698;DHT22;19087;51.062;3.754;2024-02-16T03:31:59;14.20;99.90
32698;DHT22;19087;51.062;3.754;2024-02-16T03:34:25;14.30;99.90
32698;DHT22;19087;51.062;3.754;2024-02-16T03:36:50;14.30;99.90
32698;DHT22;19087;51.062;3.754;2024-02-16T03:39:18;14.20;99.90
32698;DHT22;19087;51.062;3.754;2024-02-16T03:41:45;14.30;99.90
32698;DHT22;19087;51.062;3.754;2024-02-16T03:44:14;14.30;99.90
32698;DHT22;19087;51.062;3.754;2024-02-16T03:46:41;14.30;99.90
32698;DHT22;19087;51.062;3.754;2024-02-16T03:49:07;14.40;99.90
32698;DHT22;19087;51.062;3.754;2024-02-16T03:51:33;14.50;99.90
32698;DHT22;19087;51.062;3.754;2024-02-16T03:53:59;14.50;99.90
32698;DHT22;19087;51.062;3.754;2024-02-16T03:56:24;14.50;99.90
32698;DHT22;19087;51.062;3.754;2024-02-16T03:58:50;14.50;99.90
32698;DHT22;19087;51.062;3.754;2024-02-16T04:01:16;14.50;99.90
32698;DHT22;19087;51.062;3.754;2024-02-16T04:03:41;14.40;99.90
32698;DHT22;19087;51.062;3.754;2024-02-16T04:06:08;14.40;99.90
32698;DHT22;19087;51.062;3.754;2024-02-16T04:08:33;14.50;99.90
32698;DHT22;19087;51.062;3.754;2024-02-16T04:14:21;14.60;99.90
32698;DHT22;19087;51.062;3.754;2024-02-16T04:16:47;14.60;99.90
32698;DHT22;19087;51.062;3.754;2024-02-16T04:19:12;14.60;99.90
32698;DHT22;19087;51.062;3.754;2024-02-16T04:21:38;14.70;99.90
32698;DHT22;19087;51.062;3.754;2024-02-16T04:24:04;14.70;99.90
32698;DHT22;19087;51.062;3.754;2024-02-16T04:26:31;14.70;99.90
32698;DHT22;19087;51.062;3.754;2024-02-16T04:28:56;14.80;99.90
32698;DHT22;19087;51.062;3.754;2024-02-16T04:31:22;14.70;99.90
32698;DHT22;19087;51.062;3.754;2024-02-16T04:33:48;14.60;99.90
32698;DHT22;19087;51.062;3.754;2024-02-16T04:36:13;14.60;99.90
32698;DHT22;19087;51.062;3.754;2024-02-16T04:38:41;14.60;99.90
32698;DHT22;19087;51.062;3.754;2024-02-16T04:41:08;14.40;99.90
32698;DHT22;19087;51.062;3.754;2024-02-16T04:43:34;14.40;99.90
32698;DHT22;19087;51.062;3.754;2024-02-16T04:46:00;14.40;99.90
32698;DHT22;19087;51.062;3.754;2024-02-16T04:48:26;14.50;99.90
32698;DHT22;19087;51.062;3.754;2024-02-16T04:50:52;14.50;99.90
32698;DHT22;19087;51.062;3.754;2024-02-16T04:53:18;14.50;99.90
32698;DHT22;19087;51.062;3.754;2024-02-16T04:55:44;14.50;99.90
32698;DHT22;19087;51.062;3.754;2024-02-16T04:58:11;14.50;99.90
32698;DHT22;19087;51.062;3.754;2024-02-16T05:00:39;14.40;99.90
32698;DHT22;19087;51.062;3.754;2024-02-16T05:03:06;14.40;99.90
32698;DHT22;19087;51.062;3.754;2024-02-16T05:05:32;14.40;99.90
32698;DHT22;19087;51.062;3.754;2024-02-16T05:07:58;14.40;99.90
32698;DHT22;19087;51.062;3.754;2024-02-16T05:10:23;14.50;99.90
32698;DHT22;19087;51.062;3.754;2024-02-16T05:12:49;14.50;99.90
32698;DHT22;19087;51.062;3.754;2024-02-16T05:15:15;14.40;99.90
32698;DHT22;19087;51.062;3.754;2024-02-16T05:17:42;14.40;99.90
32698;DHT22;19087;51.062;3.754;2024-02-16T05:20:13;14.40;99.90
32698;DHT22;19087;51.062;3.754;2024-02-16T05:22:45;14.40;99.90
32698;DHT22;19087;51.062;3.754;2024-02-16T05:25:15;14.30;99.90
32698;DHT22;19087;51.062;3.754;2024-02-16T05:27:41;14.30;99.90
32698;DHT22;19087;51.062;3.754;2024-02-16T05:30:10;14.20;99.90
32698;DHT22;19087;51.062;3.754;2024-02-16T05:32:38;14.10;99.90
32698;DHT22;19087;51.062;3.754;2024-02-16T05:35:05;14.10;99.90
32698;DHT22;19087;51.062;3.754;2024-02-16T05:37:47;14.10;99.90
32698;DHT22;19087;51.062;3.754;2024-02-16T05:40:15;14.10;99.90
32698;DHT22;19087;51.062;3.754;2024-02-16T05:42:52;14.00;99.90
32698;DHT22;19087;51.062;3.754;2024-02-16T05:45:19;14.00;99.90
32698;DHT22;19087;51.062;3.754;2024-02-16T05:47:47;14.00;99.90
32698;DHT22;19087;51.062;3.754;2024-02-16T05:50:13;14.00;99.90
32698;DHT22;19087;51.062;3.754;2024-02-16T05:52:39;14.10;99.90
32698;DHT22;19087;51.062;3.754;2024-02-16T05:55:08;14.20;99.90
32698;DHT22;19087;51.062;3.754;2024-02-16T05:57:37;14.20;99.90
32698;DHT22;19087;51.062;3.754;2024-02-16T06:00:07;14.20;99.90
32698;DHT22;19087;51.062;3.754;2024-02-16T06:02:34;14.20;99.90
32698;DHT22;19087;51.062;3.754;2024-02-16T06:05:03;14.30;99.90
32698;DHT22;19087;51.062;3.754;2024-02-16T06:07:30;14.30;99.90
32698;DHT22;19087;51.062;3.754;2024-02-16T06:09:56;14.30;99.90
32698;DHT22;19087;51.062;3.754;2024-02-16T06:12:23;14.30;99.90
32698;DHT22;19087;51.062;3.754;2024-02-16T06:14:49;14.30;99.90
32698;DHT22;19087;51.062;3.754;2024-02-16T06:17:16;14.30;99.90
32698;DHT22;19087;51.062;3.754;2024-02-16T06:19:42;14.40;99.90
32698;DHT22;19087;51.062;3.754;2024-02-16T06:22:08;14.40;99.90
32698;DHT22;19087;51.062;3.754;2024-02-16T06:24:35;14.30;99.90
32698;DHT22;19087;51.062;3.754;2024-02-16T06:27:01;14.40;99.90
32698;DHT22;19087;51.062;3.754;2024-02-16T06:29:27;14.20;99.90
32698;DHT22;19087;51.062;3.754;2024-02-16T06:31:53;14.20;99.90
32698;DHT22;19087;51.062;3.754;2024-02-16T06:34:19;14.10;99.90
32698;DHT22;19087;51.062;3.754;2024-02-16T06:36:45;14.10;99.90
32698;DHT22;19087;51.062;3.754;2024-02-16T06:39:11;14.20;99.90
32698;DHT22;19087;51.062;3.754;2024-02-16T06:41:42;14.30;99.90
32698;DHT22;19087;51.062;3.754;2024-02-16T06:44:09;14.20;99.90
32698;DHT22;19087;51.062;3.754;2024-02-16T06:46:35;14.30;99.90
32698;DHT22;19087;51.062;3.754;2024-02-16T06:49:01;14.40;99.90
32698;DHT22;19087;51.062;3.754;2024-02-16T06:51:27;14.30;99.90
32698;DHT22;19087;51.062;3.754;2024-02-16T06:53:54;14.40;99.90
32698;DHT22;19087;51.062;3.754;2024-02-16T06:56:20;14.50;99.90
32698;DHT22;19087;51.062;3.754;2024-02-16T06:58:46;14.40;99.90
32698;DHT22;19087;51.062;3.754;2024-02-16T07:01:16;14.50;99.90
32698;DHT22;19087;51.062;3.754;2024-02-16T07:03:44;14.70;99.90
32698;DHT22;19087;51.062;3.754;2024-02-16T07:06:12;14.60;99.90
32698;DHT22;19087;51.062;3.754;2024-02-16T07:08:40;14.60;99.90
32698;DHT22;19087;51.062;3.754;2024-02-16T07:11:06;14.70;99.90
32698;DHT22;19087;51.062;3.754;2024-02-16T07:13:33;14.70;99.90
32698;DHT22;19087;51.062;3.754;2024-02-16T07:15:59;14.80;99.90
32698;DHT22;19087;51.062;3.754;2024-02-16T07:18:24;14.70;99.90
32698;DHT22;19087;51.062;3.754;2024-02-16T07:20:50;14.80;99.90
32698;DHT22;19087;51.062;3.754;2024-02-16T07:23:16;14.80;99.90
32698;DHT22;19087;51.062;3.754;2024-02-16T07:25:42;14.90;99.90
32698;DHT22;19087;51.062;3.754;2024-02-16T07:28:08;15.00;99.90
32698;DHT22;19087;51.062;3.754;2024-02-16T07:30:35;15.00;99.90
32698;DHT22;19087;51.062;3.754;2024-02-16T07:33:04;14.90;99.90
32698;DHT22;19087;51.062;3.754;2024-02-16T07:35:30;14.80;99.90
32698;DHT22;19087;51.062;3.754;2024-02-16T07:37:57;14.70;99.90
32698;DHT22;19087;51.062;3.754;2024-02-16T07:40:23;14.70;99.90
32698;DHT22;19087;51.062;3.754;2024-02-16T07:42:50;14.70;99.90
32698;DHT22;19087;51.062;3.754;2024-02-16T07:45:15;14.70;99.90
32698;DHT22;19087;51.062;3.754;2024-02-16T07:47:41;14.50;99.90
32698;DHT22;19087;51.062;3.754;2024-02-16T07:50:08;14.40;99.90
32698;DHT22;19087;51.062;3.754;2024-02-16T07:52:33;14.50;99.90
32698;DHT22;19087;51.062;3.754;2024-02-16T07:55:02;14.60;99.90
32698;DHT22;19087;51.062;3.754;2024-02-16T07:57:28;14.60;99.90
32698;DHT22;19087;51.062;3.754;2024-02-16T07:59:56;14.40;99.90
32698;DHT22;19087;51.062;3.754;2024-02-16T08:02:21;14.40;99.90
32698;DHT22;19087;51.062;3.754;2024-02-16T08:04:50;14.60;99.90
32698;DHT22;19087;51.062;3.754;2024-02-16T08:07:21;14.50;99.90
32698;DHT22;19087;51.062;3.754;2024-02-16T08:09:48;14.50;99.90
32698;DHT22;19087;51.062;3.754;2024-02-16T08:12:16;14.60;99.90
32698;DHT22;19087;51.062;3.754;2024-02-16T08:14:45;14.70;99.90
32698;DHT22;19087;51.062;3.754;2024-02-16T08:17:12;14.30;99.90
32698;DHT22;19087;51.062;3.754;2024-02-16T08:19:38;14.40;99.90
32698;DHT22;19087;51.062;3.754;2024-02-16T08:22:06;14.60;99.90
32698;DHT22;19087;51.062;3.754;2024-02-16T08:24:33;14.80;99.90
32698;DHT22;19087;51.062;3.754;2024-02-16T08:26:59;14.50;99.90
32698;DHT22;19087;51.062;3.754;2024-02-16T08:29:25;14.50;99.90
32698;DHT22;19087;51.062;3.754;2024-02-16T08:31:52;14.60;99.90
32698;DHT22;19087;51.062;3.754;2024-02-16T08:34:18;14.50;99.90
32698;DHT22;19087;51.062;3.754;2024-02-16T08:36:48;14.50;99.90
32698;DHT22;19087;51.062;3.754;2024-02-16T08:39:15;14.40;99.90
32698;DHT22;19087;51.062;3.754;2024-02-16T08:41:41;14.30;99.90
32698;DHT22;19087;51.062;3.754;2024-02-16T08:44:10;14.20;99.90
32698;DHT22;19087;51.062;3.754;2024-02-16T08:46:39;14.20;99.90
32698;DHT22;19087;51.062;3.754;2024-02-16T08:49:05;14.50;99.90
32698;DHT22;19087;51.062;3.754;2024-02-16T08:51:34;14.40;99.90
32698;DHT22;19087;51.062;3.754;2024-02-16T08:54:01;14.50;99.90
32698;DHT22;19087;51.062;3.754;2024-02-16T08:56:28;14.60;99.90
32698;DHT22;19087;51.062;3.754;2024-02-16T08:58:55;14.70;99.90
32698;DHT22;19087;51.062;3.754;2024-02-16T09:01:34;14.70;99.90
32698;DHT22;19087;51.062;3.754;2024-02-16T09:04:00;14.80;99.90
32698;DHT22;19087;51.062;3.754;2024-02-16T09:06:33;14.80;99.90
32698;DHT22;19087;51.062;3.754;2024-02-16T09:09:04;14.90;99.90
32698;DHT22;19087;51.062;3.754;2024-02-16T09:11:30;14.90;99.90
32698;DHT22;19087;51.062;3.754;2024-02-16T09:13:56;14.80;99.90
32698;DHT22;19087;51.062;3.754;2024-02-16T09:16:22;14.80;99.90
32698;DHT22;19087;51.062;3.754;2024-02-16T09:18:49;14.90;99.90
32698;DHT22;19087;51.062;3.754;2024-02-16T09:21:15;14.90;99.90
32698;DHT22;19087;51.062;3.754;2024-02-16T09:23:41;14.70;99.90
32698;DHT22;19087;51.062;3.754;2024-02-16T09:26:06;14.60;99.90
32698;DHT22;19087;51.062;3.754;2024-02-16T09:28:40;14.70;99.90
32698;DHT22;19087;51.062;3.754;2024-02-16T09:31:13;14.80;99.90
32698;DHT22;19087;51.062;3.754;2024-02-16T09:33:39;14.90;99.90
32698;DHT22;19087;51.062;3.754;2024-02-16T09:36:05;15.00;99.90
32698;DHT22;19087;51.062;3.754;2024-02-16T09:38:31;14.90;99.90
32698;DHT22;19087;51.062;3.754;2024-02-16T09:40:57;14.90;99.90
32698;DHT22;19087;51.062;3.754;2024-02-16T09:43:29;15.00;99.90
32698;DHT22;19087;51.062;3.754;2024-02-16T09:45:57;15.00;99.90
32698;DHT22;19087;51.062;3.754;2024-02-16T09:48:26;14.80;99.90
32698;DHT22;19087;51.062;3.754;2024-02-16T09:50:56;14.80;99.90
32698;DHT22;19087;51.062;3.754;2024-02-16T09:53:26;14.90;99.90
32698;DHT22;19087;51.062;3.754;2024-02-16T09:55:55;14.80;99.90
32698;DHT22;19087;51.062;3.754;2024-02-16T09:58:23;14.70;99.90
32698;DHT22;19087;51.062;3.754;2024-02-16T10:00:53;14.70;99.90
32698;DHT22;19087;51.062;3.754;2024-02-16T10:03:30;14.70;99.90
32698;DHT22;19087;51.062;3.754;2024-02-16T10:06:09;14.60;99.90
32698;DHT22;19087;51.062;3.754;2024-02-16T10:08:46;14.70;99.90
32698;DHT22;19087;51.062;3.754;2024-02-16T10:11:15;14.70;99.90
32698;DHT22;19087;51.062;3.754;2024-02-16T10:13:40;14.80;99.90
32698;DHT22;19087;51.062;3.754;2024-02-16T10:16:11;14.80;99.90
32698;DHT22;19087;51.062;3.754;2024-02-16T10:18:38;14.70;99.90
32698;DHT22;19087;51.062;3.754;2024-02-16T10:21:05;14.70;99.90
32698;DHT22;19087;51.062;3.754;2024-02-16T10:23:36;14.70;99.90
32698;DHT22;19087;51.062;3.754;2024-02-16T10:26:01;14.40;99.90
32698;DHT22;19087;51.062;3.754;2024-02-16T10:28:29;14.50;99.90
32698;DHT22;19087;51.062;3.754;2024-02-16T10:31:00;14.50;99.90
32698;DHT22;19087;51.062;3.754;2024-02-16T10:33:32;14.40;99.90
32698;DHT22;19087;51.062;3.754;2024-02-16T10:35:58;14.50;99.90
32698;DHT22;19087;51.062;3.754;2024-02-16T10:38:25;14.50;99.90
32698;DHT22;19087;51.062;3.754;2024-02-16T10:40:53;14.50;99.90
32698;DHT22;19087;51.062;3.754;2024-02-16T10:43:20;14.50;99.90
32698;DHT22;19087;51.062;3.754;2024-02-16T10:45:47;14.50;99.90
32698;DHT22;19087;51.062;3.754;2024-02-16T10:48:18;14.50;99.90
32698;DHT22;19087;51.062;3.754;2024-02-16T10:50:50;14.60;99.90
32698;DHT22;19087;51.062;3.754;2024-02-16T10:53:29;14.40;99.90
32698;DHT22;19087;51.062;3.754;2024-02-16T10:56:00;14.40;99.90
32698;DHT22;19087;51.062;3.754;2024-02-16T10:58:27;14.30;99.90
32698;DHT22;19087;51.062;3.754;2024-02-16T11:00:55;14.30;99.90
32698;DHT22;19087;51.062;3.754;2024-02-16T11:03:27;14.30;99.90
32698;DHT22;19087;51.062;3.754;2024-02-16T11:05:53;14.10;99.90
32698;DHT22;19087;51.062;3.754;2024-02-16T11:08:24;14.20;99.90
32698;DHT22;19087;51.062;3.754;2024-02-16T11:11:00;14.30;99.90
32698;DHT22;19087;51.062;3.754;2024-02-16T11:13:32;14.20;99.90
32698;DHT22;19087;51.062;3.754;2024-02-16T11:16:07;14.40;99.90
32698;DHT22;19087;51.062;3.754;2024-02-16T11:18:39;14.40;99.90
32698;DHT22;19087;51.062;3.754;2024-02-16T11:21:14;14.30;99.90
32698;DHT22;19087;51.062;3.754;2024-02-16T11:23:42;14.40;99.90
32698;DHT22;19087;51.062;3.754;2024-02-16T11:26:12;14.20;99.90
32698;DHT22;19087;51.062;3.754;2024-02-16T11:28:41;14.20;99.90
32698;DHT22;19087;51.062;3.754;2024-02-16T11:31:07;14.10;99.90
32698;DHT22;19087;51.062;3.754;2024-02-16T11:33:34;14.10;99.90
32698;DHT22;19087;51.062;3.754;2024-02-16T11:36:04;14.10;99.90
32698;DHT22;19087;51.062;3.754;2024-02-16T11:38:33;14.20;99.90
32698;DHT22;19087;51.062;3.754;2024-02-16T11:41:06;14.10;99.90
32698;DHT22;19087;51.062;3.754;2024-02-16T11:43:35;14.00;99.90
32698;DHT22;19087;51.062;3.754;2024-02-16T11:46:21;14.10;99.90
32698;DHT22;19087;51.062;3.754;2024-02-16T11:48:47;14.00;99.90
32698;DHT22;19087;51.062;3.754;2024-02-16T11:51:15;14.20;99.90
32698;DHT22;19087;51.062;3.754;2024-02-16T11:53:42;14.10;99.90
32698;DHT22;19087;51.062;3.754;2024-02-16T11:56:09;14.20;99.90
32698;DHT22;19087;51.062;3.754;2024-02-16T11:58:35;14.30;99.90
32698;DHT22;19087;51.062;3.754;2024-02-16T12:01:02;14.60;99.90
32698;DHT22;19087;51.062;3.754;2024-02-16T12:03:28;14.80;99.90
32698;DHT22;19087;51.062;3.754;2024-02-16T12:05:55;15.10;99.90
32698;DHT22;19087;51.062;3.754;2024-02-16T12:08:22;15.20;99.90
32698;DHT22;19087;51.062;3.754;2024-02-16T12:10:49;15.40;99.90
32698;DHT22;19087;51.062;3.754;2024-02-16T12:13:20;15.50;99.90
32698;DHT22;19087;51.062;3.754;2024-02-16T12:15:48;15.60;99.90
32698;DHT22;19087;51.062;3.754;2024-02-16T12:18:23;15.70;99.90
32698;DHT22;19087;51.062;3.754;2024-02-16T12:21:00;15.70;99.90
32698;DHT22;19087;51.062;3.754;2024-02-16T12:23:26;15.80;99.90
32698;DHT22;19087;51.062;3.754;2024-02-16T12:25:53;15.90;99.90
32698;DHT22;19087;51.062;3.754;2024-02-16T12:28:23;15.90;99.90
32698;DHT22;19087;51.062;3.754;2024-02-16T12:30:51;16.10;99.90
32698;DHT22;19087;51.062;3.754;2024-02-16T12:33:23;16.20;99.90
32698;DHT22;19087;51.062;3.754;2024-02-16T12:35:50;16.20;99.90
32698;DHT22;19087;51.062;3.754;2024-02-16T12:38:16;16.40;99.90
32698;DHT22;19087;51.062;3.754;2024-02-16T12:40:52;16.40;99.90
32698;DHT22;19087;51.062;3.754;2024-02-16T12:43:18;16.20;99.90
32698;DHT22;19087;51.062;3.754;2024-02-16T12:45:45;16.20;99.90
32698;DHT22;19087;51.062;3.754;2024-02-16T12:48:11;16.40;99.90
32698;DHT22;19087;51.062;3.754;2024-02-16T12:50:38;16.60;99.90
32698;DHT22;19087;51.062;3.754;2024-02-16T12:53:06;16.70;99.90
32698;DHT22;19087;51.062;3.754;2024-02-16T12:55:35;16.80;99.90
32698;DHT22;19087;51.062;3.754;2024-02-16T12:58:01;16.80;99.90
32698;DHT22;19087;51.062;3.754;2024-02-16T13:00:29;16.60;99.90
32698;DHT22;19087;51.062;3.754;2024-02-16T13:02:56;16.70;99.90
32698;DHT22;19087;51.062;3.754;2024-02-16T13:05:21;16.70;99.90
32698;DHT22;19087;51.062;3.754;2024-02-16T13:07:47;16.80;99.90
32698;DHT22;19087;51.062;3.754;2024-02-16T13:13:35;16.90;99.90
32698;DHT22;19087;51.062;3.754;2024-02-16T13:16:00;16.90;99.90
32698;DHT22;19087;51.062;3.754;2024-02-16T13:18:27;16.70;99.90
32698;DHT22;19087;51.062;3.754;2024-02-16T13:20:53;16.40;99.90
32698;DHT22;19087;51.062;3.754;2024-02-16T13:23:18;16.30;99.90
32698;DHT22;19087;51.062;3.754;2024-02-16T13:25:44;16.40;99.90
32698;DHT22;19087;51.062;3.754;2024-02-16T13:28:11;16.50;99.90
32698;DHT22;19087;51.062;3.754;2024-02-16T13:30:37;16.40;99.90
32698;DHT22;19087;51.062;3.754;2024-02-16T13:33:05;16.40;99.90
32698;DHT22;19087;51.062;3.754;2024-02-16T13:35:31;16.60;99.90
32698;DHT22;19087;51.062;3.754;2024-02-16T13:37:57;16.50;99.90
32698;DHT22;19087;51.062;3.754;2024-02-16T13:40:26;16.70;99.90
32698;DHT22;19087;51.062;3.754;2024-02-16T13:42:53;16.60;99.90
32698;DHT22;19087;51.062;3.754;2024-02-16T13:45:28;16.80;99.90
32698;DHT22;19087;51.062;3.754;2024-02-16T13:47:57;16.90;99.90
32698;DHT22;19087;51.062;3.754;2024-02-16T13:50:23;16.90;99.90
32698;DHT22;19087;51.062;3.754;2024-02-16T13:52:51;17.00;99.90
32698;DHT22;19087;51.062;3.754;2024-02-16T13:55:23;17.00;99.90
32698;DHT22;19087;51.062;3.754;2024-02-16T13:57:49;16.90;99.90
32698;DHT22;19087;51.062;3.754;2024-02-16T14:00:15;16.60;99.90
32698;DHT22;19087;51.062;3.754;2024-02-16T14:02:42;16.30;99.90
32698;DHT22;19087;51.062;3.754;2024-02-16T14:05:11;16.30;99.90
32698;DHT22;19087;51.062;3.754;2024-02-16T14:07:43;16.30;99.90
32698;DHT22;19087;51.062;3.754;2024-02-16T14:10:08;16.30;99.90
32698;DHT22;19087;51.062;3.754;2024-02-16T14:12:34;16.40;99.90
32698;DHT22;19087;51.062;3.754;2024-02-16T14:15:02;16.50;99.90
32698;DHT22;19087;51.062;3.754;2024-02-16T14:17:28;16.20;99.90
32698;DHT22;19087;51.062;3.754;2024-02-16T14:19:54;16.30;99.90
32698;DHT22;19087;51.062;3.754;2024-02-16T14:22:20;16.30;99.90
32698;DHT22;19087;51.062;3.754;2024-02-16T14:24:46;16.30;99.90
32698;DHT22;19087;51.062;3.754;2024-02-16T14:27:14;16.30;99.90
32698;DHT22;19087;51.062;3.754;2024-02-16T14:29:40;16.50;99.90
32698;DHT22;19087;51.062;3.754;2024-02-16T14:32:07;16.70;99.90
32698;DHT22;19087;51.062;3.754;2024-02-16T14:34:35;16.70;99.90
32698;DHT22;19087;51.062;3.754;2024-02-16T14:37:02;16.80;99.90
32698;DHT22;19087;51.062;3.754;2024-02-16T14:39:28;16.80;99.90
32698;DHT22;19087;51.062;3.754;2024-02-16T14:41:53;16.90;99.90
32698;DHT22;19087;51.062;3.754;2024-02-16T14:44:20;17.00;99.90
32698;DHT22;19087;51.062;3.754;2024-02-16T14:46:45;16.90;99.90
32698;DHT22;19087;51.062;3.754;2024-02-16T14:49:11;16.90;99.90
32698;DHT22;19087;51.062;3.754;2024-02-16T14:51:40;16.90;99.90
32698;DHT22;19087;51.062;3.754;2024-02-16T14:54:08;16.90;99.90
32698;DHT22;19087;51.062;3.754;2024-02-16T14:56:34;16.90;99.90
32698;DHT22;19087;51.062;3.754;2024-02-16T14:59:01;16.90;99.90
32698;DHT22;19087;51.062;3.754;2024-02-16T15:01:28;16.90;99.90
32698;DHT22;19087;51.062;3.754;2024-02-16T15:03:53;16.80;99.90
32698;DHT22;19087;51.062;3.754;2024-02-16T15:06:19;16.70;99.90
32698;DHT22;19087;51.062;3.754;2024-02-16T15:08:45;16.80;99.90
32698;DHT22;19087;51.062;3.754;2024-02-16T15:11:11;16.90;99.90
32698;DHT22;19087;51.062;3.754;2024-02-16T15:13:36;16.90;99.90
32698;DHT22;19087;51.062;3.754;2024-02-16T15:16:04;16.80;99.90
32698;DHT22;19087;51.062;3.754;2024-02-16T15:18:30;16.60;99.90
32698;DHT22;19087;51.062;3.754;2024-02-16T15:20:57;16.60;99.90
32698;DHT22;19087;51.062;3.754;2024-02-16T15:23:23;16.60;99.90
32698;DHT22;19087;51.062;3.754;2024-02-16T15:25:49;16.60;99.90
32698;DHT22;19087;51.062;3.754;2024-02-16T15:28:15;16.60;99.90
32698;DHT22;19087;51.062;3.754;2024-02-16T15:30:42;16.60;99.90
32698;DHT22;19087;51.062;3.754;2024-02-16T15:33:08;16.70;99.90
32698;DHT22;19087;51.062;3.754;2024-02-16T15:35:36;16.60;99.90
32698;DHT22;19087;51.062;3.754;2024-02-16T15:38:01;16.70;99.90